Time;durP1;ratioP1;P1;durP2;ratioP2;P2;SDS_P1;SDS_P2;PMS_P1;PMS_P2;Temp;Humidity;BMP_temperature;BMP_pressure;BME280_temperature;BME280_humidity;BME280_pressure;Samples;Min_cycle;Max_cycle;Signal;HPM_P1;HPM_P2
2022/03/09 00:01:32;;;;;;;19.73;7.95;;;;;;;;;;4975847;28;20031;-78
2022/03/09 00:03:59;;;;;;;16.00;8.85;;;;;;;;;;4975450;28;20034;-79
2022/03/09 00:06:25;;;;;;;19.05;8.90;;;;;;;;;;4995324;28;20018;-79
2022/03/09 00:08:51;;;;;;;17.63;7.82;;;;;;;;;;4992145;28;20027;-79
2022/03/09 00:11:16;;;;;;;17.67;9.00;;;;;;;;;;4995680;28;20584;-80
2022/03/09 00:13:41;;;;;;;19.52;8.40;;;;;;;;;;4975211;28;20093;-78
2022/03/09 00:16:07;;;;;;;12.65;7.38;;;;;;;;;;4991237;28;20047;-78
2022/03/09 00:18:32;;;;;;;20.05;8.10;;;;;;;;;;4996318;28;20027;-79
2022/03/09 00:20:58;;;;;;;15.23;7.35;;;;;;;;;;4984917;28;20035;-79
2022/03/09 00:23:24;;;;;;;16.05;7.63;;;;;;;;;;4989877;28;20023;-78
2022/03/09 00:25:49;;;;;;;18.65;7.55;;;;;;;;;;4991731;28;20042;-79
2022/03/09 00:28:15;;;;;;;17.45;7.93;;;;;;;;;;4995705;28;20028;-78
2022/03/09 00:30:40;;;;;;;15.65;7.63;;;;;;;;;;4990151;28;20350;-77
2022/03/09 00:33:06;;;;;;;10.30;6.70;;;;;;;;;;4970082;28;20557;-77
2022/03/09 00:35:31;;;;;;;13.05;5.75;;;;;;;;;;4997180;28;20049;-78
2022/03/09 00:37:56;;;;;;;22.92;7.05;;;;;;;;;;4994393;28;20019;-77
2022/03/09 00:40:22;;;;;;;13.35;6.72;;;;;;;;;;4994764;28;20022;-77
2022/03/09 00:42:47;;;;;;;17.63;6.90;;;;;;;;;;4991919;28;20050;-78
2022/03/09 00:45:13;;;;;;;10.43;6.22;;;;;;;;;;4992656;28;20049;-78
2022/03/09 00:47:38;;;;;;;13.30;7.13;;;;;;;;;;4972386;28;20029;-78
2022/03/09 00:50:05;;;;;;;14.52;6.97;;;;;;;;;;4993172;28;20030;-77
2022/03/09 00:52:31;;;;;;;12.23;6.10;;;;;;;;;;4987107;28;20117;-79
2022/03/09 00:54:57;;;;;;;14.30;6.03;;;;;;;;;;4993088;28;20026;-78
2022/03/09 00:57:22;;;;;;;13.50;6.05;;;;;;;;;;4997255;28;20397;-78
2022/03/09 00:59:48;;;;;;;14.68;6.88;;;;;;;;;;4980142;28;20412;-79
2022/03/09 01:02:13;;;;;;;12.18;6.20;;;;;;;;;;4979538;28;20026;-78
2022/03/09 01:04:39;;;;;;;12.00;6.65;;;;;;;;;;4991540;28;20080;-79
2022/03/09 01:07:05;;;;;;;12.15;6.38;;;;;;;;;;4985994;28;20030;-79
2022/03/09 01:09:31;;;;;;;15.13;6.40;;;;;;;;;;4980374;28;20061;-79
2022/03/09 01:11:57;;;;;;;15.18;7.15;;;;;;;;;;4998835;28;20026;-78
2022/03/09 01:14:22;;;;;;;13.80;6.68;;;;;;;;;;4979655;28;20022;-79
2022/03/09 01:16:48;;;;;;;16.77;6.97;;;;;;;;;;4981929;28;20025;-78
2022/03/09 01:19:13;;;;;;;14.30;5.80;;;;;;;;;;4992196;28;20093;-79
2022/03/09 01:21:39;;;;;;;13.98;6.65;;;;;;;;;;5005253;28;20559;-79
2022/03/09 01:24:04;;;;;;;13.85;6.80;;;;;;;;;;4996741;28;20381;-79
2022/03/09 01:26:30;;;;;;;12.48;6.38;;;;;;;;;;4996417;28;20068;-79
2022/03/09 01:28:55;;;;;;;10.10;5.78;;;;;;;;;;4979029;28;20022;-78
2022/03/09 01:31:20;;;;;;;12.00;6.18;;;;;;;;;;4995610;28;20159;-79
2022/03/09 01:33:46;;;;;;;14.48;7.70;;;;;;;;;;4995944;28;20037;-79
2022/03/09 01:36:11;;;;;;;15.38;6.72;;;;;;;;;;4996046;28;20033;-78
2022/03/09 01:38:37;;;;;;;14.80;5.97;;;;;;;;;;4978383;28;20034;-78
2022/03/09 01:41:02;;;;;;;15.60;6.63;;;;;;;;;;4995275;28;21888;-78
2022/03/09 01:43:28;;;;;;;13.93;6.68;;;;;;;;;;4995900;28;20026;-79
2022/03/09 01:45:53;;;;;;;13.25;6.60;;;;;;;;;;4998112;28;20485;-79
2022/03/09 01:48:19;;;;;;;15.73;6.05;;;;;;;;;;5004466;28;20535;-78
2022/03/09 01:50:47;;;;;;;11.60;6.70;;;;;;;;;;5011555;28;20455;-80
2022/03/09 01:53:13;;;;;;;12.63;6.65;;;;;;;;;;4999056;28;20089;-79
2022/03/09 01:55:38;;;;;;;12.35;6.03;;;;;;;;;;5023949;28;20036;-79
2022/03/09 01:58:04;;;;;;;15.18;6.18;;;;;;;;;;5024272;28;20030;-79
2022/03/09 02:00:30;;;;;;;15.55;6.65;;;;;;;;;;5024101;28;20077;-79
2022/03/09 02:02:55;;;;;;;15.02;6.50;;;;;;;;;;5002643;28;20421;-80
2022/03/09 02:05:20;;;;;;;14.55;7.80;;;;;;;;;;4978511;28;20037;-79
2022/03/09 02:10:30;;;;;;;12.98;6.25;;;;;;;;;;5003553;28;20037;-79
2022/03/09 02:12:55;;;;;;;14.50;7.13;;;;;;;;;;4988147;28;20109;-79
2022/03/09 02:15:21;;;;;;;12.52;5.63;;;;;;;;;;4994459;28;20030;-79
2022/03/09 02:17:46;;;;;;;12.68;6.38;;;;;;;;;;4994456;28;20551;-80
2022/03/09 02:20:11;;;;;;;10.32;5.65;;;;;;;;;;4996151;28;20303;-79
2022/03/09 02:22:39;;;;;;;11.23;5.75;;;;;;;;;;5003253;28;20053;-80
2022/03/09 02:25:15;;;;;;;11.75;5.80;;;;;;;;;;4995778;28;20670;-78
2022/03/09 02:27:43;;;;;;;14.15;7.22;;;;;;;;;;5014501;28;20400;-78
2022/03/09 02:30:11;;;;;;;13.82;5.82;;;;;;;;;;4996328;28;20030;-78
2022/03/09 02:32:44;;;;;;;13.43;5.88;;;;;;;;;;4995081;28;20077;-79
2022/03/09 02:35:10;;;;;;;15.18;6.82;;;;;;;;;;4977785;28;20018;-78
2022/03/09 02:37:37;;;;;;;11.75;6.30;;;;;;;;;;4986894;28;20050;-80
2022/03/09 02:40:03;;;;;;;10.77;5.90;;;;;;;;;;5014597;28;20445;-79
2022/03/09 02:42:29;;;;;;;15.02;5.88;;;;;;;;;;5020396;28;20083;-79
2022/03/09 02:44:54;;;;;;;10.98;5.82;;;;;;;;;;5003498;28;20041;-78
2022/03/09 02:47:19;;;;;;;11.65;5.72;;;;;;;;;;5004138;28;20041;-79
2022/03/09 02:49:45;;;;;;;19.23;5.38;;;;;;;;;;4995541;28;20473;-79
2022/03/09 02:52:10;;;;;;;8.15;4.78;;;;;;;;;;5005532;28;20390;-79
2022/03/09 02:54:35;;;;;;;11.60;5.57;;;;;;;;;;5014674;28;20163;-80
2022/03/09 02:57:01;;;;;;;10.32;5.70;;;;;;;;;;5017796;28;20109;-79
2022/03/09 02:59:26;;;;;;;15.40;6.65;;;;;;;;;;5019072;28;20037;-78
2022/03/09 03:01:51;;;;;;;10.82;5.95;;;;;;;;;;4997406;28;20113;-79
2022/03/09 03:04:18;;;;;;;10.38;5.57;;;;;;;;;;5022370;28;20469;-78
2022/03/09 03:06:43;;;;;;;12.07;6.05;;;;;;;;;;5010488;28;20038;-78
2022/03/09 03:09:08;;;;;;;11.88;6.13;;;;;;;;;;4991966;28;20030;-78
2022/03/09 03:11:34;;;;;;;9.73;5.25;;;;;;;;;;5027410;28;20025;-78
2022/03/09 03:13:59;;;;;;;10.48;5.72;;;;;;;;;;5008158;28;20053;-78
2022/03/09 03:16:25;;;;;;;15.27;5.82;;;;;;;;;;4987804;28;20030;-79
2022/03/09 03:18:50;;;;;;;13.43;7.65;;;;;;;;;;4984854;28;20025;-79
2022/03/09 03:21:15;;;;;;;12.80;6.40;;;;;;;;;;5010264;28;20078;-79
2022/03/09 03:23:41;;;;;;;13.82;6.38;;;;;;;;;;5023426;28;20033;-78
2022/03/09 03:26:06;;;;;;;14.25;6.38;;;;;;;;;;5008418;28;20022;-79
2022/03/09 03:28:32;;;;;;;18.02;7.22;;;;;;;;;;5004130;28;20035;-79
2022/03/09 03:30:58;;;;;;;15.25;7.82;;;;;;;;;;5006625;28;20022;-79
2022/03/09 03:33:23;;;;;;;12.02;6.85;;;;;;;;;;5006909;28;20366;-79
2022/03/09 03:35:49;;;;;;;11.23;6.40;;;;;;;;;;5007513;28;20035;-80
2022/03/09 03:38:16;;;;;;;19.88;7.30;;;;;;;;;;5015155;28;20022;-78
2022/03/09 03:40:42;;;;;;;15.65;7.78;;;;;;;;;;5004747;28;20028;-79
2022/03/09 03:43:07;;;;;;;12.77;6.85;;;;;;;;;;4980141;28;20023;-80
2022/03/09 03:45:33;;;;;;;18.83;7.00;;;;;;;;;;5011410;28;20119;-78
2022/03/09 03:47:58;;;;;;;16.35;6.97;;;;;;;;;;5013495;28;20041;-80
2022/03/09 03:50:24;;;;;;;14.02;6.60;;;;;;;;;;4992251;28;20014;-79
2022/03/09 03:52:49;;;;;;;16.23;6.82;;;;;;;;;;5017924;28;20022;-79
2022/03/09 03:55:15;;;;;;;15.20;6.18;;;;;;;;;;5013779;28;20030;-79
2022/03/09 03:57:40;;;;;;;12.88;6.15;;;;;;;;;;5005107;28;20026;-79
2022/03/09 04:00:08;;;;;;;11.88;6.28;;;;;;;;;;4986808;28;20481;-79
2022/03/09 04:02:33;;;;;;;11.05;5.80;;;;;;;;;;5004617;28;20027;-80
2022/03/09 04:04:59;;;;;;;17.83;7.38;;;;;;;;;;5002443;28;20169;-79
2022/03/09 04:07:24;;;;;;;12.25;6.45;;;;;;;;;;5008748;28;20018;-78
2022/03/09 04:09:50;;;;;;;11.25;6.10;;;;;;;;;;4998445;28;20036;-79
2022/03/09 04:12:15;;;;;;;12.93;6.50;;;;;;;;;;5005176;28;20018;-79
2022/03/09 04:14:41;;;;;;;11.68;6.32;;;;;;;;;;5005240;28;20025;-77
2022/03/09 04:17:06;;;;;;;14.68;6.22;;;;;;;;;;4993303;28;20022;-79
2022/03/09 04:19:31;;;;;;;12.82;6.05;;;;;;;;;;5002664;28;20022;-80
2022/03/09 04:21:57;;;;;;;12.07;6.57;;;;;;;;;;5003620;28;20040;-79
2022/03/09 04:24:22;;;;;;;11.40;5.63;;;;;;;;;;4985989;28;20033;-79
2022/03/09 04:26:48;;;;;;;15.38;6.10;;;;;;;;;;5004840;28;20065;-78
2022/03/09 04:29:13;;;;;;;11.25;6.20;;;;;;;;;;5004027;28;20109;-79
2022/03/09 04:31:39;;;;;;;12.07;6.05;;;;;;;;;;4985564;28;20113;-79
2022/03/09 04:34:05;;;;;;;17.92;7.10;;;;;;;;;;4998501;28;20103;-79
2022/03/09 04:36:31;;;;;;;11.35;5.72;;;;;;;;;;4997679;28;20472;-78
2022/03/09 04:38:56;;;;;;;13.15;6.13;;;;;;;;;;4988590;28;20022;-78
2022/03/09 04:41:21;;;;;;;10.55;6.15;;;;;;;;;;4995834;28;20108;-78
2022/03/09 04:43:47;;;;;;;9.25;5.50;;;;;;;;;;4980421;28;20401;-78
2022/03/09 04:46:13;;;;;;;14.50;6.43;;;;;;;;;;5004935;28;20030;-78
2022/03/09 04:48:38;;;;;;;14.93;6.78;;;;;;;;;;5003120;28;20026;-78
2022/03/09 04:51:04;;;;;;;10.68;5.88;;;;;;;;;;5016589;28;20030;-77
2022/03/09 04:53:30;;;;;;;15.05;6.65;;;;;;;;;;5017044;28;20018;-78
2022/03/09 04:55:56;;;;;;;12.13;6.43;;;;;;;;;;4982663;28;20486;-79
2022/03/09 04:58:22;;;;;;;12.07;5.93;;;;;;;;;;4995460;28;20030;-79
2022/03/09 05:00:48;;;;;;;17.70;6.53;;;;;;;;;;4987552;28;20031;-79
2022/03/09 05:03:13;;;;;;;12.43;6.22;;;;;;;;;;4995146;28;20026;-78
2022/03/09 05:05:39;;;;;;;12.07;5.97;;;;;;;;;;4996089;28;20063;-79
2022/03/09 05:08:04;;;;;;;10.57;6.03;;;;;;;;;;5005177;28;20029;-78
2022/03/09 05:10:30;;;;;;;14.45;6.20;;;;;;;;;;4979088;28;20022;-78
2022/03/09 05:12:55;;;;;;;13.52;6.53;;;;;;;;;;4995565;28;20185;-78
2022/03/09 05:15:21;;;;;;;11.23;5.97;;;;;;;;;;4998308;28;20022;-79
2022/03/09 05:17:46;;;;;;;12.57;6.68;;;;;;;;;;5000919;28;20026;-78
2022/03/09 05:20:13;;;;;;;11.07;6.32;;;;;;;;;;4979512;28;20029;-79
2022/03/09 05:22:38;;;;;;;13.40;6.22;;;;;;;;;;5016048;28;20030;-78
2022/03/09 05:25:06;;;;;;;12.60;6.32;;;;;;;;;;5015789;28;20040;-78
2022/03/09 05:27:32;;;;;;;11.45;5.82;;;;;;;;;;5016022;28;20476;-78
2022/03/09 05:29:57;;;;;;;11.48;6.50;;;;;;;;;;4998009;28;20029;-78
2022/03/09 05:32:23;;;;;;;10.20;6.13;;;;;;;;;;4996853;28;20026;-78
2022/03/09 05:34:50;;;;;;;20.67;7.32;;;;;;;;;;4994569;28;20089;-78
2022/03/09 05:37:16;;;;;;;13.10;6.70;;;;;;;;;;4998257;28;20116;-77
2022/03/09 05:39:41;;;;;;;18.92;7.72;;;;;;;;;;5006628;28;20061;-78
2022/03/09 05:42:07;;;;;;;15.73;7.15;;;;;;;;;;5005259;28;20030;-79
2022/03/09 05:44:32;;;;;;;12.98;6.72;;;;;;;;;;4994135;28;20022;-78
2022/03/09 05:46:58;;;;;;;14.23;6.55;;;;;;;;;;5002164;28;20077;-77
2022/03/09 05:49:27;;;;;;;14.88;7.07;;;;;;;;;;4993973;28;20457;-82
2022/03/09 05:51:53;;;;;;;15.48;6.75;;;;;;;;;;4994105;28;20026;-79
2022/03/09 05:54:19;;;;;;;15.55;7.78;;;;;;;;;;4995224;28;20101;-79
2022/03/09 05:56:45;;;;;;;15.38;7.10;;;;;;;;;;4996164;28;20022;-78
2022/03/09 05:59:11;;;;;;;16.25;7.03;;;;;;;;;;4996487;28;20027;-79
2022/03/09 06:01:36;;;;;;;13.73;7.53;;;;;;;;;;4995202;28;20026;-80
2022/03/09 06:04:02;;;;;;;14.63;7.05;;;;;;;;;;4996592;28;20030;-79
2022/03/09 06:06:28;;;;;;;18.35;8.27;;;;;;;;;;4996233;28;20053;-79
2022/03/09 06:08:53;;;;;;;13.50;7.07;;;;;;;;;;4977939;28;20029;-79
2022/03/09 06:11:19;;;;;;;25.80;5.97;;;;;;;;;;5007455;28;20033;-80
2022/03/09 06:13:45;;;;;;;14.25;7.22;;;;;;;;;;5015972;28;20449;-80
2022/03/09 06:16:10;;;;;;;15.30;7.50;;;;;;;;;;5015524;28;20097;-80
2022/03/09 06:18:36;;;;;;;18.48;7.55;;;;;;;;;;4996116;28;20532;-79
2022/03/09 06:21:01;;;;;;;15.05;7.47;;;;;;;;;;4986536;28;20049;-80
2022/03/09 06:23:27;;;;;;;21.42;8.65;;;;;;;;;;4979983;28;20026;-79
2022/03/09 06:26:13;;;;;;;18.50;7.70;;;;;;;;;;5007632;28;20034;-84
2022/03/09 06:28:38;;;;;;;19.08;8.63;;;;;;;;;;4984921;28;20026;-81
2022/03/09 06:31:04;;;;;;;16.25;8.20;;;;;;;;;;4996647;28;20026;-81
2022/03/09 06:33:30;;;;;;;16.98;6.72;;;;;;;;;;4996421;28;20031;-81
2022/03/09 06:35:55;;;;;;;15.85;8.05;;;;;;;;;;4998414;28;20033;-81
2022/03/09 06:38:20;;;;;;;19.38;7.57;;;;;;;;;;4979100;28;20018;-80
2022/03/09 06:40:46;;;;;;;16.27;8.00;;;;;;;;;;4997668;28;20052;-81
2022/03/09 06:43:11;;;;;;;23.33;8.90;;;;;;;;;;4998296;28;20027;-81
2022/03/09 06:45:39;;;;;;;16.20;8.20;;;;;;;;;;4997181;28;20058;-80
2022/03/09 06:48:05;;;;;;;17.65;8.23;;;;;;;;;;4998151;28;20030;-84
2022/03/09 06:50:34;;;;;;;19.77;7.95;;;;;;;;;;5008666;28;20039;-80
2022/03/09 06:52:59;;;;;;;22.08;8.05;;;;;;;;;;5018488;28;20066;-81
2022/03/09 06:55:25;;;;;;;18.58;9.07;;;;;;;;;;5018346;28;20171;-80
2022/03/09 06:57:50;;;;;;;15.88;9.32;;;;;;;;;;5002980;28;20084;-81
2022/03/09 07:00:16;;;;;;;18.33;9.20;;;;;;;;;;4999499;28;20030;-81
2022/03/09 07:02:43;;;;;;;16.45;8.00;;;;;;;;;;4999918;28;20366;-81
2022/03/09 07:05:11;;;;;;;20.83;9.25;;;;;;;;;;4999750;28;20033;-80
2022/03/09 07:07:37;;;;;;;19.70;10.15;;;;;;;;;;5003121;28;20111;-82
2022/03/09 07:10:03;;;;;;;21.13;8.57;;;;;;;;;;5011402;28;20495;-80
2022/03/09 07:12:29;;;;;;;16.40;8.55;;;;;;;;;;4985397;28;20117;-80
2022/03/09 07:15:02;;;;;;;19.75;9.57;;;;;;;;;;5002674;28;20028;-80
2022/03/09 07:17:28;;;;;;;16.10;9.23;;;;;;;;;;5015174;28;20042;-82
2022/03/09 07:19:53;;;;;;;17.67;9.50;;;;;;;;;;5005569;28;20033;-82
2022/03/09 07:22:19;;;;;;;26.02;9.23;;;;;;;;;;5000144;28;20022;-78
2022/03/09 07:24:44;;;;;;;19.27;9.57;;;;;;;;;;5011794;28;20497;-78
2022/03/09 07:27:09;;;;;;;25.08;10.60;;;;;;;;;;4980012;28;20062;-79
2022/03/09 07:29:35;;;;;;;19.58;8.82;;;;;;;;;;4978168;28;20026;-81
2022/03/09 07:32:00;;;;;;;19.70;9.25;;;;;;;;;;4994744;28;20027;-79
2022/03/09 07:34:26;;;;;;;21.33;9.07;;;;;;;;;;4997262;28;20039;-80
2022/03/09 07:36:57;;;;;;;19.75;10.10;;;;;;;;;;4997850;28;20106;-80
2022/03/09 07:39:27;;;;;;;23.35;10.07;;;;;;;;;;4993291;28;20026;-80
2022/03/09 07:41:54;;;;;;;19.90;9.63;;;;;;;;;;4992613;28;20041;-79
2022/03/09 07:44:20;;;;;;;18.65;9.88;;;;;;;;;;4996706;28;20018;-80
2022/03/09 07:46:45;;;;;;;21.67;9.90;;;;;;;;;;5003464;28;20037;-79
2022/03/09 07:49:11;;;;;;;15.00;8.55;;;;;;;;;;4982773;28;20026;-80
2022/03/09 07:51:36;;;;;;;16.77;9.15;;;;;;;;;;4997399;28;20026;-79
2022/03/09 07:54:01;;;;;;;14.57;8.27;;;;;;;;;;4982107;28;20124;-79
2022/03/09 07:56:27;;;;;;;17.10;8.90;;;;;;;;;;4999719;28;20035;-79
2022/03/09 07:58:52;;;;;;;16.52;8.85;;;;;;;;;;5000978;28;20030;-79
2022/03/09 08:01:17;;;;;;;15.02;8.60;;;;;;;;;;5000833;28;20101;-79
2022/03/09 08:03:44;;;;;;;15.88;9.57;;;;;;;;;;4981888;28;20090;-80
2022/03/09 08:06:10;;;;;;;21.63;9.48;;;;;;;;;;4999574;28;20062;-80
2022/03/09 08:08:35;;;;;;;19.83;8.85;;;;;;;;;;4981061;28;20485;-80
2022/03/09 08:11:00;;;;;;;16.83;8.88;;;;;;;;;;4982301;28;20090;-80
2022/03/09 08:13:26;;;;;;;17.90;9.02;;;;;;;;;;4994427;28;20037;-81
2022/03/09 08:15:51;;;;;;;14.82;8.77;;;;;;;;;;4997179;28;20022;-80
2022/03/09 08:18:17;;;;;;;16.80;9.30;;;;;;;;;;5010195;28;20092;-80
2022/03/09 08:20:42;;;;;;;14.73;8.73;;;;;;;;;;5017812;28;20030;-80
2022/03/09 08:23:08;;;;;;;15.05;8.75;;;;;;;;;;5012826;28;20080;-80
2022/03/09 08:25:34;;;;;;;15.85;8.50;;;;;;;;;;4980190;28;20030;-79
2022/03/09 08:28:00;;;;;;;15.55;8.43;;;;;;;;;;5005746;28;20037;-80
2022/03/09 08:30:26;;;;;;;21.65;9.25;;;;;;;;;;5006583;28;20365;-81
2022/03/09 08:32:52;;;;;;;19.73;8.85;;;;;;;;;;4999146;28;20112;-81
2022/03/09 08:35:17;;;;;;;19.73;8.38;;;;;;;;;;4981186;28;20105;-81
2022/03/09 08:37:43;;;;;;;15.15;7.65;;;;;;;;;;4997716;28;20022;-80
2022/03/09 08:40:08;;;;;;;21.83;8.18;;;;;;;;;;4997645;28;20050;-80
2022/03/09 08:42:34;;;;;;;14.23;8.45;;;;;;;;;;4992609;28;20448;-80
2022/03/09 08:44:59;;;;;;;12.45;7.32;;;;;;;;;;4980481;28;20053;-80
2022/03/09 08:47:24;;;;;;;15.80;7.68;;;;;;;;;;5005708;28;20053;-79
2022/03/09 08:49:50;;;;;;;17.73;8.70;;;;;;;;;;4997466;28;20037;-80
2022/03/09 08:52:15;;;;;;;12.68;7.78;;;;;;;;;;4979999;28;20053;-79
2022/03/09 08:54:41;;;;;;;12.77;7.38;;;;;;;;;;4997454;28;20086;-80
2022/03/09 08:57:07;;;;;;;13.93;7.43;;;;;;;;;;4997648;28;20057;-80
2022/03/09 08:59:32;;;;;;;10.88;7.28;;;;;;;;;;4997564;28;20030;-80
2022/03/09 09:01:58;;;;;;;14.32;7.03;;;;;;;;;;4997191;28;20026;-80
2022/03/09 09:04:23;;;;;;;11.02;7.40;;;;;;;;;;4979397;28;20053;-79
2022/03/09 09:06:49;;;;;;;10.98;7.13;;;;;;;;;;4997007;28;20086;-80
2022/03/09 09:09:16;;;;;;;14.07;7.90;;;;;;;;;;5007246;28;20061;-79
2022/03/09 09:11:42;;;;;;;14.23;7.45;;;;;;;;;;5013054;28;20030;-80
2022/03/09 09:14:07;;;;;;;11.82;7.43;;;;;;;;;;5006568;28;20022;-82
2022/03/09 09:16:33;;;;;;;14.65;8.10;;;;;;;;;;4989920;28;20030;-82
2022/03/09 09:18:58;;;;;;;16.25;7.47;;;;;;;;;;4990247;28;20026;-80
2022/03/09 09:21:24;;;;;;;11.00;6.97;;;;;;;;;;4998640;28;20026;-82
2022/03/09 09:23:49;;;;;;;13.48;7.80;;;;;;;;;;4979626;28;20026;-79
2022/03/09 09:26:15;;;;;;;15.55;8.23;;;;;;;;;;4996973;28;20030;-80
2022/03/09 09:28:41;;;;;;;14.52;7.78;;;;;;;;;;4996716;28;20030;-80
2022/03/09 09:31:07;;;;;;;13.85;7.50;;;;;;;;;;4996202;28;20026;-79
2022/03/09 09:33:32;;;;;;;13.32;7.32;;;;;;;;;;4995596;28;20022;-80
2022/03/09 09:35:57;;;;;;;16.48;6.97;;;;;;;;;;4978081;28;20033;-80
2022/03/09 09:38:23;;;;;;;15.13;7.72;;;;;;;;;;5005063;28;20022;-80
2022/03/09 09:40:52;;;;;;;14.55;8.77;;;;;;;;;;4996752;28;20026;-80
2022/03/09 09:43:18;;;;;;;12.60;7.15;;;;;;;;;;4996197;28;20030;-80
2022/03/09 09:45:44;;;;;;;14.57;7.93;;;;;;;;;;4996671;28;20057;-80
2022/03/09 09:48:10;;;;;;;13.63;7.32;;;;;;;;;;5006195;28;20057;-80
2022/03/09 09:50:37;;;;;;;18.80;7.78;;;;;;;;;;5016496;28;20060;-80
2022/03/09 09:53:07;;;;;;;12.20;7.55;;;;;;;;;;5016696;28;20022;-80
2022/03/09 09:55:33;;;;;;;13.90;7.07;;;;;;;;;;4999199;28;20415;-80
2022/03/09 09:57:59;;;;;;;11.65;7.32;;;;;;;;;;5016760;28;20028;-80
2022/03/09 10:00:24;;;;;;;13.65;6.95;;;;;;;;;;5016516;28;20477;-80
2022/03/09 10:02:50;;;;;;;13.68;7.10;;;;;;;;;;5016239;28;20033;-80
2022/03/09 10:05:18;;;;;;;12.20;7.50;;;;;;;;;;5016256;28;20388;-79
2022/03/09 10:08:06;;;;;;;15.25;6.97;;;;;;;;;;5015948;28;20025;-80
2022/03/09 10:10:31;;;;;;;13.07;6.82;;;;;;;;;;5003397;28;20018;-80
2022/03/09 10:13:16;;;;;;;12.35;7.90;;;;;;;;;;5016102;28;20021;-79
2022/03/09 10:15:44;;;;;;;14.77;7.45;;;;;;;;;;5008084;28;20164;-80
2022/03/09 10:18:19;;;;;;;12.38;7.38;;;;;;;;;;5006112;28;20014;-80
2022/03/09 10:20:46;;;;;;;19.33;8.15;;;;;;;;;;5000030;28;20485;-79
2022/03/09 10:23:13;;;;;;;17.48;8.20;;;;;;;;;;4994545;28;20034;-80
2022/03/09 10:25:40;;;;;;;16.17;7.75;;;;;;;;;;4978275;28;20052;-79
2022/03/09 10:28:08;;;;;;;16.50;8.07;;;;;;;;;;4995052;28;20113;-80
2022/03/09 10:30:35;;;;;;;16.30;8.13;;;;;;;;;;4996179;28;20045;-80
2022/03/09 10:33:14;;;;;;;13.60;7.80;;;;;;;;;;4996002;28;20022;-80
2022/03/09 10:35:45;;;;;;;15.75;7.65;;;;;;;;;;4995519;28;20031;-79
2022/03/09 10:38:17;;;;;;;16.30;7.57;;;;;;;;;;4987678;28;20055;-79
2022/03/09 10:40:48;;;;;;;15.75;7.47;;;;;;;;;;5009892;28;20428;-79
2022/03/09 10:43:21;;;;;;;18.25;9.35;;;;;;;;;;5002812;28;20064;-79
2022/03/09 10:46:09;;;;;;;18.25;8.90;;;;;;;;;;4998976;28;20034;-79
2022/03/09 10:49:00;;;;;;;18.17;8.50;;;;;;;;;;5005447;28;20160;-79
2022/03/09 10:51:50;;;;;;;16.13;7.53;;;;;;;;;;5011723;28;20057;-79
2022/03/09 10:54:30;;;;;;;14.70;7.78;;;;;;;;;;4991870;28;20429;-79
2022/03/09 10:57:09;;;;;;;16.67;8.68;;;;;;;;;;5019628;28;20026;-79
2022/03/09 10:59:49;;;;;;;13.23;7.80;;;;;;;;;;5001653;28;20026;-79
2022/03/09 11:02:19;;;;;;;13.93;7.88;;;;;;;;;;5001875;28;20022;-79
2022/03/09 11:05:06;;;;;;;18.15;9.02;;;;;;;;;;5018914;28;20029;-79
2022/03/09 11:07:34;;;;;;;20.58;8.93;;;;;;;;;;5020811;28;20104;-77
2022/03/09 11:10:00;;;;;;;15.40;8.60;;;;;;;;;;5013700;28;20026;-79
2022/03/09 11:12:25;;;;;;;16.48;9.32;;;;;;;;;;4986133;28;20034;-79
2022/03/09 11:14:51;;;;;;;15.07;8.45;;;;;;;;;;5000090;28;20041;-81
2022/03/09 11:17:24;;;;;;;16.73;8.38;;;;;;;;;;5008848;28;20057;-80
2022/03/09 11:19:49;;;;;;;14.82;8.88;;;;;;;;;;4982519;28;20038;-79
2022/03/09 11:22:15;;;;;;;15.25;8.80;;;;;;;;;;5007152;28;20031;-81
2022/03/09 11:24:41;;;;;;;19.27;9.25;;;;;;;;;;4999508;28;20026;-81
2022/03/09 11:27:07;;;;;;;16.95;8.60;;;;;;;;;;4982170;28;20488;-80
2022/03/09 11:29:38;;;;;;;19.58;9.00;;;;;;;;;;5000307;28;20030;-81
2022/03/09 11:32:06;;;;;;;17.35;8.63;;;;;;;;;;4998006;28;20034;-81
2022/03/09 11:34:39;;;;;;;18.42;8.95;;;;;;;;;;4990108;28;20018;-80
2022/03/09 11:37:08;;;;;;;15.15;8.73;;;;;;;;;;4982519;28;20117;-80
2022/03/09 11:39:36;;;;;;;15.13;8.77;;;;;;;;;;5010173;28;20044;-80
2022/03/09 11:42:19;;;;;;;15.77;9.05;;;;;;;;;;5012354;28;20037;-79
2022/03/09 11:44:49;;;;;;;18.42;8.98;;;;;;;;;;4999005;28;20033;-81
2022/03/09 11:47:15;;;;;;;15.25;8.50;;;;;;;;;;4998424;28;20057;-83
2022/03/09 11:49:45;;;;;;;15.55;8.20;;;;;;;;;;4986977;28;20032;-80
2022/03/09 11:52:23;;;;;;;14.65;8.13;;;;;;;;;;4999149;28;20469;-81
2022/03/09 11:54:58;;;;;;;20.58;9.15;;;;;;;;;;5007175;28;20076;-82
2022/03/09 11:57:44;;;;;;;13.35;8.15;;;;;;;;;;4998317;28;20346;-81
2022/03/09 12:00:14;;;;;;;17.20;8.65;;;;;;;;;;4981814;28;20028;-81
2022/03/09 12:02:55;;;;;;;23.42;8.75;;;;;;;;;;4999518;28;20026;-81
2022/03/09 12:05:40;;;;;;;15.13;9.18;;;;;;;;;;4999750;28;20026;-82
2022/03/09 12:08:10;;;;;;;16.10;8.77;;;;;;;;;;4982129;28;20029;-81
2022/03/09 12:10:56;;;;;;;16.92;8.10;;;;;;;;;;4981498;28;20023;-83
2022/03/09 12:13:23;;;;;;;16.02;8.70;;;;;;;;;;4982106;28;20092;-82
2022/03/09 12:16:15;;;;;;;13.93;8.05;;;;;;;;;;4998000;28;20429;-81
2022/03/09 12:18:47;;;;;;;16.30;8.20;;;;;;;;;;4989776;28;20036;-86
2022/03/09 12:21:18;;;;;;;14.75;8.73;;;;;;;;;;4994347;28;20037;-81
2022/03/09 12:24:02;;;;;;;16.63;7.97;;;;;;;;;;4999101;28;20018;-81
2022/03/09 12:26:43;;;;;;;16.42;8.48;;;;;;;;;;5000924;28;20018;-79
2022/03/09 12:29:20;;;;;;;14.82;8.57;;;;;;;;;;4984167;28;20056;-82
2022/03/09 12:31:46;;;;;;;12.80;7.72;;;;;;;;;;5000730;28;20050;-82
2022/03/09 12:34:23;;;;;;;12.68;8.10;;;;;;;;;;5005417;28;20033;-81
2022/03/09 12:36:49;;;;;;;14.55;8.25;;;;;;;;;;4990672;28;20030;-82
2022/03/09 12:39:15;;;;;;;16.15;8.63;;;;;;;;;;5009415;28;20006;-80
2022/03/09 12:41:42;;;;;;;18.33;8.40;;;;;;;;;;5015431;28;20030;-79
2022/03/09 12:44:12;;;;;;;13.20;7.57;;;;;;;;;;5018259;28;20033;-79
2022/03/09 12:46:40;;;;;;;18.05;8.38;;;;;;;;;;5013270;28;20093;-81
2022/03/09 12:49:08;;;;;;;13.20;7.65;;;;;;;;;;5016748;28;20013;-80
2022/03/09 12:51:35;;;;;;;15.07;7.93;;;;;;;;;;5008040;28;20015;-79
2022/03/09 12:54:01;;;;;;;13.70;7.70;;;;;;;;;;5011917;28;20046;-80
2022/03/09 12:56:29;;;;;;;12.18;7.78;;;;;;;;;;4995690;28;20029;-82
2022/03/09 12:59:08;;;;;;;13.70;7.45;;;;;;;;;;5002502;28;20052;-82
2022/03/09 13:01:33;;;;;;;14.02;7.68;;;;;;;;;;4980700;28;20030;-81
2022/03/09 13:04:02;;;;;;;11.70;7.40;;;;;;;;;;5003635;28;20030;-84
2022/03/09 13:06:36;;;;;;;15.30;8.30;;;;;;;;;;5014002;28;20034;-81
2022/03/09 13:09:03;;;;;;;13.65;6.55;;;;;;;;;;4995225;28;20104;-82
2022/03/09 13:11:33;;;;;;;12.55;6.80;;;;;;;;;;5004877;28;20069;-83
2022/03/09 13:14:00;;;;;;;11.15;6.78;;;;;;;;;;4994423;28;20022;-81
2022/03/09 13:16:26;;;;;;;10.50;5.68;;;;;;;;;;5014946;28;20021;-80
2022/03/09 13:19:00;;;;;;;11.45;7.07;;;;;;;;;;4997458;28;20030;-81
2022/03/09 13:21:27;;;;;;;12.90;6.47;;;;;;;;;;5004679;28;20208;-81
2022/03/09 13:23:58;;;;;;;10.38;6.03;;;;;;;;;;5014248;28;20034;-79
2022/03/09 13:26:25;;;;;;;16.88;6.90;;;;;;;;;;4992982;28;20025;-79
2022/03/09 13:28:59;;;;;;;12.05;6.88;;;;;;;;;;4985911;28;20022;-78
2022/03/09 13:31:43;;;;;;;13.93;7.40;;;;;;;;;;4979648;28;20038;-79
2022/03/09 13:34:39;;;;;;;12.38;6.88;;;;;;;;;;4967650;28;20034;-79
2022/03/09 13:37:18;;;;;;;14.38;6.70;;;;;;;;;;4999872;28;20054;-81
2022/03/09 13:39:48;;;;;;;12.75;6.93;;;;;;;;;;4974037;28;20038;-81
2022/03/09 13:42:27;;;;;;;12.75;6.38;;;;;;;;;;4975307;28;20034;-78
2022/03/09 13:45:01;;;;;;;12.27;7.45;;;;;;;;;;4990255;28;20493;-77
2022/03/09 13:47:26;;;;;;;13.73;6.75;;;;;;;;;;4984748;28;20034;-79
2022/03/09 13:49:52;;;;;;;21.02;8.25;;;;;;;;;;4975811;28;20019;-78
2022/03/09 13:52:31;;;;;;;12.82;7.70;;;;;;;;;;4985659;28;20025;-80
2022/03/09 13:55:01;;;;;;;17.48;7.57;;;;;;;;;;4978469;28;20102;-82
2022/03/09 13:57:31;;;;;;;14.48;7.53;;;;;;;;;;4987633;28;20045;-79
2022/03/09 13:59:57;;;;;;;11.88;7.45;;;;;;;;;;4983219;28;20022;-80
2022/03/09 14:02:24;;;;;;;12.35;7.28;;;;;;;;;;4986463;28;20058;-78
2022/03/09 14:04:49;;;;;;;12.80;7.38;;;;;;;;;;4992858;28;20022;-77
2022/03/09 14:07:15;;;;;;;10.75;6.70;;;;;;;;;;4987193;28;20033;-79
2022/03/09 14:09:40;;;;;;;13.48;7.40;;;;;;;;;;4994273;28;20024;-78
2022/03/09 14:12:14;;;;;;;13.07;7.20;;;;;;;;;;5001126;28;20032;-78
2022/03/09 14:14:39;;;;;;;15.38;7.65;;;;;;;;;;4998592;28;20105;-79
2022/03/09 14:17:04;;;;;;;14.07;7.47;;;;;;;;;;5007858;28;20436;-80
2022/03/09 14:19:30;;;;;;;11.43;6.57;;;;;;;;;;4981394;28;20049;-79
2022/03/09 14:21:55;;;;;;;12.85;7.03;;;;;;;;;;4985736;28;20419;-78
2022/03/09 14:24:21;;;;;;;13.50;6.47;;;;;;;;;;4983462;28;20518;-79
2022/03/09 14:26:48;;;;;;;10.02;6.28;;;;;;;;;;4994599;28;20030;-79
2022/03/09 14:29:14;;;;;;;16.45;5.88;;;;;;;;;;5008390;28;20496;-79
2022/03/09 14:31:40;;;;;;;11.98;6.50;;;;;;;;;;5000288;28;20046;-79
2022/03/09 14:34:06;;;;;;;10.38;6.32;;;;;;;;;;5006168;28;20457;-80
2022/03/09 14:36:32;;;;;;;11.38;6.55;;;;;;;;;;4994487;28;20030;-78